Terminal Aerodrome Forecast
Issued by NWS

Home | Current Version | Previous Version | Text Only | Print | Product List | Glossary On
Versions: 1 2 3 4 5 6 7 8 9 10 11 12 13
519
FTUS45 KRIW 301130
TAFBPI
TAF
KBPI 301130Z 3012/3112 30006KT P6SM SCT080
     FM301900 30015G25KT P6SM SCT070
     FM310200 34008KT P6SM SKC
     FM310700 VRB05KT P6SM SKC=

USA.gov is the U.S. government's official web portal to all federal, state and local government web resources and services.